sensor_id;sensor_type;location;lat;lon;timestamp;P1;durP1;ratioP1;P2;durP2;ratioP2
25127;SDS011;13107;51.304;6.866;2024-03-02T00:03:23;1.90;;;1.10;;
25127;SDS011;13107;51.304;6.866;2024-03-02T00:07:26;1.87;;;1.00;;
25127;SDS011;13107;51.304;6.866;2024-03-02T00:11:28;1.67;;;1.00;;
25127;SDS011;13107;51.304;6.866;2024-03-02T00:19:41;1.40;;;0.90;;
25127;SDS011;13107;51.304;6.866;2024-03-02T00:23:42;1.12;;;0.70;;
25127;SDS011;13107;51.304;6.866;2024-03-02T00:27:47;4.40;;;0.98;;
25127;SDS011;13107;51.304;6.866;2024-03-02T00:31:52;2.85;;;1.65;;
25127;SDS011;13107;51.304;6.866;2024-03-02T00:35:54;1.45;;;0.82;;
25127;SDS011;13107;51.304;6.866;2024-03-02T00:39:56;1.87;;;1.02;;
25127;SDS011;13107;51.304;6.866;2024-03-02T00:44:02;1.98;;;0.98;;
25127;SDS011;13107;51.304;6.866;2024-03-02T00:48:05;2.03;;;0.88;;
25127;SDS011;13107;51.304;6.866;2024-03-02T00:52:07;2.90;;;1.20;;
25127;SDS011;13107;51.304;6.866;2024-03-02T00:56:10;2.62;;;1.20;;
25127;SDS011;13107;51.304;6.866;2024-03-02T01:00:15;3.40;;;1.00;;
25127;SDS011;13107;51.304;6.866;2024-03-02T01:04:19;2.08;;;0.95;;
25127;SDS011;13107;51.304;6.866;2024-03-02T01:08:21;2.03;;;0.80;;
25127;SDS011;13107;51.304;6.866;2024-03-02T01:12:23;1.85;;;0.73;;
25127;SDS011;13107;51.304;6.866;2024-03-02T01:16:24;2.12;;;0.90;;
25127;SDS011;13107;51.304;6.866;2024-03-02T01:20:26;2.25;;;1.00;;
25127;SDS011;13107;51.304;6.866;2024-03-02T01:24:28;1.75;;;0.90;;
25127;SDS011;13107;51.304;6.866;2024-03-02T01:28:30;1.75;;;0.88;;
25127;SDS011;13107;51.304;6.866;2024-03-02T01:32:32;3.25;;;0.95;;
25127;SDS011;13107;51.304;6.866;2024-03-02T01:36:34;2.28;;;1.10;;
25127;SDS011;13107;51.304;6.866;2024-03-02T01:40:36;1.08;;;0.77;;
25127;SDS011;13107;51.304;6.866;2024-03-02T01:44:39;2.55;;;1.02;;
25127;SDS011;13107;51.304;6.866;2024-03-02T01:48:41;6.97;;;1.02;;
25127;SDS011;13107;51.304;6.866;2024-03-02T01:52:43;2.25;;;0.80;;
25127;SDS011;13107;51.304;6.866;2024-03-02T01:56:45;3.12;;;0.68;;
25127;SDS011;13107;51.304;6.866;2024-03-02T02:00:47;1.40;;;0.70;;
25127;SDS011;13107;51.304;6.866;2024-03-02T02:04:49;0.70;;;0.50;;
25127;SDS011;13107;51.304;6.866;2024-03-02T02:08:51;1.67;;;0.80;;
25127;SDS011;13107;51.304;6.866;2024-03-02T02:12:53;1.58;;;0.90;;
25127;SDS011;13107;51.304;6.866;2024-03-02T02:16:55;1.77;;;0.70;;
25127;SDS011;13107;51.304;6.866;2024-03-02T02:20:56;1.23;;;0.70;;
25127;SDS011;13107;51.304;6.866;2024-03-02T02:24:58;2.65;;;0.70;;
25127;SDS011;13107;51.304;6.866;2024-03-02T02:29:00;3.72;;;0.80;;
25127;SDS011;13107;51.304;6.866;2024-03-02T02:33:02;1.90;;;0.62;;
25127;SDS011;13107;51.304;6.866;2024-03-02T02:37:04;1.98;;;0.73;;
25127;SDS011;13107;51.304;6.866;2024-03-02T02:41:07;1.67;;;0.82;;
25127;SDS011;13107;51.304;6.866;2024-03-02T02:45:09;4.87;;;0.90;;
25127;SDS011;13107;51.304;6.866;2024-03-02T02:49:12;1.90;;;0.80;;
25127;SDS011;13107;51.304;6.866;2024-03-02T02:53:14;1.60;;;0.80;;
25127;SDS011;13107;51.304;6.866;2024-03-02T02:57:16;1.42;;;0.80;;
25127;SDS011;13107;51.304;6.866;2024-03-02T03:01:17;1.20;;;0.80;;
25127;SDS011;13107;51.304;6.866;2024-03-02T03:05:20;2.08;;;0.60;;
25127;SDS011;13107;51.304;6.866;2024-03-02T03:09:22;2.55;;;0.90;;
25127;SDS011;13107;51.304;6.866;2024-03-02T03:13:24;1.52;;;0.80;;
25127;SDS011;13107;51.304;6.866;2024-03-02T03:17:26;2.25;;;0.70;;
25127;SDS011;13107;51.304;6.866;2024-03-02T03:21:31;1.95;;;0.70;;
25127;SDS011;13107;51.304;6.866;2024-03-02T03:25:33;1.77;;;0.80;;
25127;SDS011;13107;51.304;6.866;2024-03-02T03:29:36;2.03;;;0.80;;
25127;SDS011;13107;51.304;6.866;2024-03-02T03:33:38;2.40;;;0.68;;
25127;SDS011;13107;51.304;6.866;2024-03-02T03:37:39;2.05;;;0.57;;
25127;SDS011;13107;51.304;6.866;2024-03-02T03:41:41;3.50;;;1.58;;
25127;SDS011;13107;51.304;6.866;2024-03-02T03:45:43;2.37;;;0.80;;
25127;SDS011;13107;51.304;6.866;2024-03-02T03:49:45;4.22;;;1.30;;
25127;SDS011;13107;51.304;6.866;2024-03-02T03:53:47;2.08;;;0.73;;
25127;SDS011;13107;51.304;6.866;2024-03-02T03:57:49;1.17;;;0.70;;
25127;SDS011;13107;51.304;6.866;2024-03-02T04:01:51;1.70;;;0.80;;
25127;SDS011;13107;51.304;6.866;2024-03-02T04:05:54;1.48;;;0.88;;
25127;SDS011;13107;51.304;6.866;2024-03-02T04:09:56;1.80;;;0.82;;
25127;SDS011;13107;51.304;6.866;2024-03-02T04:13:57;2.95;;;0.80;;
25127;SDS011;13107;51.304;6.866;2024-03-02T04:17:59;2.12;;;0.77;;
25127;SDS011;13107;51.304;6.866;2024-03-02T04:22:01;1.75;;;0.70;;
25127;SDS011;13107;51.304;6.866;2024-03-02T04:26:15;5.28;;;0.93;;
25127;SDS011;13107;51.304;6.866;2024-03-02T04:30:21;1.98;;;0.60;;
25127;SDS011;13107;51.304;6.866;2024-03-02T04:34:23;1.98;;;0.70;;
25127;SDS011;13107;51.304;6.866;2024-03-02T04:38:24;2.17;;;0.80;;
25127;SDS011;13107;51.304;6.866;2024-03-02T04:42:26;2.67;;;0.93;;
25127;SDS011;13107;51.304;6.866;2024-03-02T04:46:28;2.75;;;0.98;;
25127;SDS011;13107;51.304;6.866;2024-03-02T04:50:30;2.17;;;0.90;;
25127;SDS011;13107;51.304;6.866;2024-03-02T04:54:32;0.65;;;0.50;;
25127;SDS011;13107;51.304;6.866;2024-03-02T04:58:34;1.67;;;0.70;;
25127;SDS011;13107;51.304;6.866;2024-03-02T05:02:35;2.22;;;0.73;;
25127;SDS011;13107;51.304;6.866;2024-03-02T05:06:38;1.55;;;0.60;;
25127;SDS011;13107;51.304;6.866;2024-03-02T05:10:43;1.62;;;0.90;;
25127;SDS011;13107;51.304;6.866;2024-03-02T05:14:45;2.85;;;0.70;;
25127;SDS011;13107;51.304;6.866;2024-03-02T05:18:47;3.25;;;0.90;;
25127;SDS011;13107;51.304;6.866;2024-03-02T05:22:49;1.58;;;0.82;;
25127;SDS011;13107;51.304;6.866;2024-03-02T05:26:51;0.93;;;0.68;;
25127;SDS011;13107;51.304;6.866;2024-03-02T05:30:53;1.95;;;0.88;;
25127;SDS011;13107;51.304;6.866;2024-03-02T05:34:55;3.55;;;0.93;;
25127;SDS011;13107;51.304;6.866;2024-03-02T05:38:56;2.70;;;1.00;;
25127;SDS011;13107;51.304;6.866;2024-03-02T05:42:58;3.15;;;1.08;;
25127;SDS011;13107;51.304;6.866;2024-03-02T05:47:00;1.30;;;0.70;;
25127;SDS011;13107;51.304;6.866;2024-03-02T05:51:02;3.03;;;0.90;;
25127;SDS011;13107;51.304;6.866;2024-03-02T05:55:04;2.03;;;0.70;;
25127;SDS011;13107;51.304;6.866;2024-03-02T05:59:06;4.68;;;0.95;;
25127;SDS011;13107;51.304;6.866;2024-03-02T06:03:14;2.00;;;0.77;;
25127;SDS011;13107;51.304;6.866;2024-03-02T06:07:16;1.75;;;0.90;;
25127;SDS011;13107;51.304;6.866;2024-03-02T06:11:21;2.53;;;1.02;;
25127;SDS011;13107;51.304;6.866;2024-03-02T06:15:23;3.33;;;1.00;;
25127;SDS011;13107;51.304;6.866;2024-03-02T06:19:25;2.60;;;0.88;;
25127;SDS011;13107;51.304;6.866;2024-03-02T06:23:27;1.90;;;0.95;;
25127;SDS011;13107;51.304;6.866;2024-03-02T06:27:29;1.75;;;1.02;;
25127;SDS011;13107;51.304;6.866;2024-03-02T06:31:30;3.70;;;1.25;;
25127;SDS011;13107;51.304;6.866;2024-03-02T06:35:32;1.08;;;0.88;;
25127;SDS011;13107;51.304;6.866;2024-03-02T06:39:34;2.58;;;1.08;;
25127;SDS011;13107;51.304;6.866;2024-03-02T06:43:37;5.93;;;1.20;;
25127;SDS011;13107;51.304;6.866;2024-03-02T06:47:40;1.70;;;1.20;;
25127;SDS011;13107;51.304;6.866;2024-03-02T06:51:42;4.90;;;1.42;;
25127;SDS011;13107;51.304;6.866;2024-03-02T06:55:51;4.18;;;1.20;;
25127;SDS011;13107;51.304;6.866;2024-03-02T06:59:53;2.28;;;1.20;;
25127;SDS011;13107;51.304;6.866;2024-03-02T07:03:59;3.87;;;1.30;;
25127;SDS011;13107;51.304;6.866;2024-03-02T07:08:01;2.78;;;1.33;;
25127;SDS011;13107;51.304;6.866;2024-03-02T07:12:04;3.50;;;1.30;;
25127;SDS011;13107;51.304;6.866;2024-03-02T07:16:06;2.72;;;1.25;;
25127;SDS011;13107;51.304;6.866;2024-03-02T07:20:27;3.05;;;1.42;;
25127;SDS011;13107;51.304;6.866;2024-03-02T07:24:29;3.53;;;1.50;;
25127;SDS011;13107;51.304;6.866;2024-03-02T07:28:31;4.80;;;1.55;;
25127;SDS011;13107;51.304;6.866;2024-03-02T07:32:33;3.55;;;1.37;;
25127;SDS011;13107;51.304;6.866;2024-03-02T07:36:35;3.05;;;1.30;;
25127;SDS011;13107;51.304;6.866;2024-03-02T07:40:38;3.62;;;1.48;;
25127;SDS011;13107;51.304;6.866;2024-03-02T07:44:40;1.50;;;1.10;;
25127;SDS011;13107;51.304;6.866;2024-03-02T07:48:42;3.40;;;1.40;;
25127;SDS011;13107;51.304;6.866;2024-03-02T07:52:44;3.53;;;1.33;;
25127;SDS011;13107;51.304;6.866;2024-03-02T07:56:46;2.95;;;1.50;;
25127;SDS011;13107;51.304;6.866;2024-03-02T08:00:48;2.72;;;1.58;;
25127;SDS011;13107;51.304;6.866;2024-03-02T08:04:54;2.47;;;1.60;;
25127;SDS011;13107;51.304;6.866;2024-03-02T08:08:56;3.85;;;1.23;;
25127;SDS011;13107;51.304;6.866;2024-03-02T08:12:59;3.67;;;1.48;;
25127;SDS011;13107;51.304;6.866;2024-03-02T08:17:00;3.72;;;1.48;;
25127;SDS011;13107;51.304;6.866;2024-03-02T08:21:03;3.65;;;1.48;;
25127;SDS011;13107;51.304;6.866;2024-03-02T08:25:05;2.62;;;1.17;;
25127;SDS011;13107;51.304;6.866;2024-03-02T08:29:07;3.10;;;1.40;;
25127;SDS011;13107;51.304;6.866;2024-03-02T08:33:09;3.33;;;1.17;;
25127;SDS011;13107;51.304;6.866;2024-03-02T08:37:10;2.42;;;1.20;;
25127;SDS011;13107;51.304;6.866;2024-03-02T08:41:12;3.53;;;1.40;;
25127;SDS011;13107;51.304;6.866;2024-03-02T08:45:15;3.83;;;1.10;;
25127;SDS011;13107;51.304;6.866;2024-03-02T08:49:17;2.45;;;1.00;;
25127;SDS011;13107;51.304;6.866;2024-03-02T08:53:19;2.72;;;1.00;;
25127;SDS011;13107;51.304;6.866;2024-03-02T08:57:21;1.98;;;0.80;;
25127;SDS011;13107;51.304;6.866;2024-03-02T09:01:23;2.03;;;0.70;;
25127;SDS011;13107;51.304;6.866;2024-03-02T09:05:25;1.83;;;0.70;;
25127;SDS011;13107;51.304;6.866;2024-03-02T09:09:27;2.47;;;1.40;;
25127;SDS011;13107;51.304;6.866;2024-03-02T09:13:28;1.73;;;0.80;;
25127;SDS011;13107;51.304;6.866;2024-03-02T09:17:30;2.25;;;0.95;;
25127;SDS011;13107;51.304;6.866;2024-03-02T09:21:32;2.00;;;1.00;;
25127;SDS011;13107;51.304;6.866;2024-03-02T09:25:34;2.97;;;0.90;;
25127;SDS011;13107;51.304;6.866;2024-03-02T09:29:36;3.90;;;1.02;;
25127;SDS011;13107;51.304;6.866;2024-03-02T09:33:38;1.67;;;0.82;;
25127;SDS011;13107;51.304;6.866;2024-03-02T09:37:42;4.43;;;0.93;;
25127;SDS011;13107;51.304;6.866;2024-03-02T09:41:44;1.12;;;0.65;;
25127;SDS011;13107;51.304;6.866;2024-03-02T09:45:46;3.75;;;1.20;;
25127;SDS011;13107;51.304;6.866;2024-03-02T09:49:49;3.20;;;1.65;;
25127;SDS011;13107;51.304;6.866;2024-03-02T09:53:51;1.65;;;0.80;;
25127;SDS011;13107;51.304;6.866;2024-03-02T09:57:56;2.70;;;1.00;;
25127;SDS011;13107;51.304;6.866;2024-03-02T10:01:58;4.35;;;1.00;;
25127;SDS011;13107;51.304;6.866;2024-03-02T10:06:21;1.87;;;0.90;;
25127;SDS011;13107;51.304;6.866;2024-03-02T10:10:22;3.42;;;0.88;;
25127;SDS011;13107;51.304;6.866;2024-03-02T10:14:25;4.93;;;0.85;;
25127;SDS011;13107;51.304;6.866;2024-03-02T10:18:26;2.30;;;0.77;;
25127;SDS011;13107;51.304;6.866;2024-03-02T10:22:32;1.50;;;0.60;;
25127;SDS011;13107;51.304;6.866;2024-03-02T10:26:34;1.85;;;0.60;;
25127;SDS011;13107;51.304;6.866;2024-03-02T10:30:36;3.28;;;0.80;;
25127;SDS011;13107;51.304;6.866;2024-03-02T10:34:41;1.58;;;0.60;;
25127;SDS011;13107;51.304;6.866;2024-03-02T10:42:49;2.03;;;0.77;;
25127;SDS011;13107;51.304;6.866;2024-03-02T10:46:52;2.80;;;1.15;;
25127;SDS011;13107;51.304;6.866;2024-03-02T10:50:56;2.03;;;0.98;;
25127;SDS011;13107;51.304;6.866;2024-03-02T10:55:02;2.75;;;0.85;;
25127;SDS011;13107;51.304;6.866;2024-03-02T11:03:54;2.08;;;0.90;;
25127;SDS011;13107;51.304;6.866;2024-03-02T11:08:01;4.15;;;1.10;;
25127;SDS011;13107;51.304;6.866;2024-03-02T11:12:12;3.50;;;0.90;;
25127;SDS011;13107;51.304;6.866;2024-03-02T11:16:33;1.67;;;0.82;;
25127;SDS011;13107;51.304;6.866;2024-03-02T11:20:37;2.28;;;0.90;;
25127;SDS011;13107;51.304;6.866;2024-03-02T11:24:47;2.00;;;0.93;;
25127;SDS011;13107;51.304;6.866;2024-03-02T11:28:50;3.58;;;0.90;;
25127;SDS011;13107;51.304;6.866;2024-03-02T11:32:55;1.50;;;0.60;;
25127;SDS011;13107;51.304;6.866;2024-03-02T11:36:58;3.47;;;0.68;;
25127;SDS011;13107;51.304;6.866;2024-03-02T11:41:05;2.42;;;0.90;;
25127;SDS011;13107;51.304;6.866;2024-03-02T11:45:10;2.08;;;0.73;;
25127;SDS011;13107;51.304;6.866;2024-03-02T11:49:15;3.10;;;0.80;;
25127;SDS011;13107;51.304;6.866;2024-03-02T11:53:21;2.30;;;0.68;;
25127;SDS011;13107;51.304;6.866;2024-03-02T11:57:23;2.22;;;0.90;;
25127;SDS011;13107;51.304;6.866;2024-03-02T12:01:25;2.42;;;0.90;;
25127;SDS011;13107;51.304;6.866;2024-03-02T12:05:29;3.45;;;0.70;;
25127;SDS011;13107;51.304;6.866;2024-03-02T12:09:32;2.65;;;0.80;;
25127;SDS011;13107;51.304;6.866;2024-03-02T12:13:34;1.15;;;0.68;;
25127;SDS011;13107;51.304;6.866;2024-03-02T12:17:36;2.33;;;0.73;;
25127;SDS011;13107;51.304;6.866;2024-03-02T12:21:39;1.85;;;0.85;;
25127;SDS011;13107;51.304;6.866;2024-03-02T12:25:41;1.85;;;0.80;;
25127;SDS011;13107;51.304;6.866;2024-03-02T12:29:43;1.95;;;0.80;;
25127;SDS011;13107;51.304;6.866;2024-03-02T12:33:45;1.65;;;0.82;;
25127;SDS011;13107;51.304;6.866;2024-03-02T12:37:48;1.70;;;0.70;;
25127;SDS011;13107;51.304;6.866;2024-03-02T12:41:51;1.62;;;0.70;;
25127;SDS011;13107;51.304;6.866;2024-03-02T12:45:53;2.75;;;0.90;;
25127;SDS011;13107;51.304;6.866;2024-03-02T12:49:57;1.83;;;0.90;;
25127;SDS011;13107;51.304;6.866;2024-03-02T12:54:00;2.70;;;0.90;;
25127;SDS011;13107;51.304;6.866;2024-03-02T12:58:02;1.52;;;0.80;;
25127;SDS011;13107;51.304;6.866;2024-03-02T13:02:04;1.50;;;0.68;;
25127;SDS011;13107;51.304;6.866;2024-03-02T13:06:07;1.30;;;0.50;;
25127;SDS011;13107;51.304;6.866;2024-03-02T13:10:09;2.35;;;0.70;;
25127;SDS011;13107;51.304;6.866;2024-03-02T13:14:11;2.22;;;0.70;;
25127;SDS011;13107;51.304;6.866;2024-03-02T13:18:13;1.45;;;0.80;;
25127;SDS011;13107;51.304;6.866;2024-03-02T13:22:15;2.97;;;0.60;;
25127;SDS011;13107;51.304;6.866;2024-03-02T13:26:17;1.85;;;0.57;;
25127;SDS011;13107;51.304;6.866;2024-03-02T13:30:19;1.25;;;0.40;;
25127;SDS011;13107;51.304;6.866;2024-03-02T13:34:21;0.93;;;0.43;;
25127;SDS011;13107;51.304;6.866;2024-03-02T13:38:23;1.67;;;0.60;;
25127;SDS011;13107;51.304;6.866;2024-03-02T13:42:25;1.33;;;0.65;;
25127;SDS011;13107;51.304;6.866;2024-03-02T13:46:28;1.33;;;0.60;;
25127;SDS011;13107;51.304;6.866;2024-03-02T13:50:30;0.88;;;0.50;;
25127;SDS011;13107;51.304;6.866;2024-03-02T13:54:32;0.88;;;0.50;;
25127;SDS011;13107;51.304;6.866;2024-03-02T13:58:37;1.08;;;0.50;;
25127;SDS011;13107;51.304;6.866;2024-03-02T14:02:39;1.37;;;0.50;;
25127;SDS011;13107;51.304;6.866;2024-03-02T14:06:44;1.95;;;0.60;;
25127;SDS011;13107;51.304;6.866;2024-03-02T14:10:46;3.15;;;0.50;;
25127;SDS011;13107;51.304;6.866;2024-03-02T14:14:48;1.25;;;0.40;;
25127;SDS011;13107;51.304;6.866;2024-03-02T14:18:53;0.93;;;0.55;;
25127;SDS011;13107;51.304;6.866;2024-03-02T14:22:55;1.23;;;0.50;;
25127;SDS011;13107;51.304;6.866;2024-03-02T14:26:57;2.17;;;0.43;;
25127;SDS011;13107;51.304;6.866;2024-03-02T14:31:11;1.05;;;0.40;;
25127;SDS011;13107;51.304;6.866;2024-03-02T14:35:13;1.48;;;0.50;;
25127;SDS011;13107;51.304;6.866;2024-03-02T14:39:15;1.62;;;0.62;;
25127;SDS011;13107;51.304;6.866;2024-03-02T14:43:17;0.88;;;0.40;;
25127;SDS011;13107;51.304;6.866;2024-03-02T14:47:18;1.92;;;0.65;;
25127;SDS011;13107;51.304;6.866;2024-03-02T14:51:20;2.00;;;0.45;;
25127;SDS011;13107;51.304;6.866;2024-03-02T14:55:22;1.55;;;0.90;;
25127;SDS011;13107;51.304;6.866;2024-03-02T14:59:25;2.90;;;0.47;;
25127;SDS011;13107;51.304;6.866;2024-03-02T15:03:26;0.50;;;0.40;;
25127;SDS011;13107;51.304;6.866;2024-03-02T15:07:28;1.48;;;0.52;;
25127;SDS011;13107;51.304;6.866;2024-03-02T15:11:30;1.05;;;0.70;;
25127;SDS011;13107;51.304;6.866;2024-03-02T15:15:32;1.05;;;0.50;;
25127;SDS011;13107;51.304;6.866;2024-03-02T15:19:34;1.40;;;0.50;;
25127;SDS011;13107;51.304;6.866;2024-03-02T15:23:35;1.17;;;0.40;;
25127;SDS011;13107;51.304;6.866;2024-03-02T15:27:37;1.45;;;0.40;;
25127;SDS011;13107;51.304;6.866;2024-03-02T15:31:39;0.77;;;0.40;;
25127;SDS011;13107;51.304;6.866;2024-03-02T15:35:41;1.45;;;0.57;;
25127;SDS011;13107;51.304;6.866;2024-03-02T15:39:43;0.90;;;0.40;;
25127;SDS011;13107;51.304;6.866;2024-03-02T15:43:45;1.37;;;0.50;;
25127;SDS011;13107;51.304;6.866;2024-03-02T15:47:48;0.62;;;0.50;;
25127;SDS011;13107;51.304;6.866;2024-03-02T15:51:50;1.85;;;0.52;;
25127;SDS011;13107;51.304;6.866;2024-03-02T15:55:52;0.82;;;0.50;;
25127;SDS011;13107;51.304;6.866;2024-03-02T15:59:53;1.02;;;0.47;;
25127;SDS011;13107;51.304;6.866;2024-03-02T16:03:55;1.62;;;0.70;;
25127;SDS011;13107;51.304;6.866;2024-03-02T16:07:57;1.90;;;0.40;;
25127;SDS011;13107;51.304;6.866;2024-03-02T16:11:59;1.15;;;0.50;;
25127;SDS011;13107;51.304;6.866;2024-03-02T16:16:01;1.52;;;0.57;;
25127;SDS011;13107;51.304;6.866;2024-03-02T16:20:03;1.62;;;0.70;;
25127;SDS011;13107;51.304;6.866;2024-03-02T16:24:07;0.80;;;0.40;;
25127;SDS011;13107;51.304;6.866;2024-03-02T16:28:09;1.02;;;0.50;;
25127;SDS011;13107;51.304;6.866;2024-03-02T16:32:11;1.58;;;0.70;;
25127;SDS011;13107;51.304;6.866;2024-03-02T16:36:13;1.02;;;0.40;;
25127;SDS011;13107;51.304;6.866;2024-03-02T16:40:14;0.95;;;0.43;;
25127;SDS011;13107;51.304;6.866;2024-03-02T16:44:16;5.07;;;1.02;;
25127;SDS011;13107;51.304;6.866;2024-03-02T16:48:18;1.60;;;0.80;;
25127;SDS011;13107;51.304;6.866;2024-03-02T16:52:20;1.17;;;0.70;;
25127;SDS011;13107;51.304;6.866;2024-03-02T16:56:25;2.83;;;0.60;;
25127;SDS011;13107;51.304;6.866;2024-03-02T17:00:27;1.12;;;0.50;;
25127;SDS011;13107;51.304;6.866;2024-03-02T17:04:28;1.37;;;0.60;;
25127;SDS011;13107;51.304;6.866;2024-03-02T17:08:31;2.17;;;0.70;;
25127;SDS011;13107;51.304;6.866;2024-03-02T17:12:32;2.10;;;0.80;;
25127;SDS011;13107;51.304;6.866;2024-03-02T17:16:34;4.20;;;1.10;;
25127;SDS011;13107;51.304;6.866;2024-03-02T17:20:36;2.65;;;1.10;;
25127;SDS011;13107;51.304;6.866;2024-03-02T17:24:38;2.85;;;0.88;;
25127;SDS011;13107;51.304;6.866;2024-03-02T17:28:40;1.55;;;0.77;;
25127;SDS011;13107;51.304;6.866;2024-03-02T17:32:42;2.20;;;0.93;;
25127;SDS011;13107;51.304;6.866;2024-03-02T17:36:45;1.48;;;0.70;;
25127;SDS011;13107;51.304;6.866;2024-03-02T17:40:47;1.48;;;0.80;;
25127;SDS011;13107;51.304;6.866;2024-03-02T17:44:48;2.55;;;0.80;;
25127;SDS011;13107;51.304;6.866;2024-03-02T17:48:50;1.37;;;0.70;;
25127;SDS011;13107;51.304;6.866;2024-03-02T17:52:52;1.10;;;0.60;;
25127;SDS011;13107;51.304;6.866;2024-03-02T17:56:56;3.37;;;0.80;;
25127;SDS011;13107;51.304;6.866;2024-03-02T18:00:58;1.37;;;0.95;;
25127;SDS011;13107;51.304;6.866;2024-03-02T18:05:00;1.48;;;0.70;;
25127;SDS011;13107;51.304;6.866;2024-03-02T18:09:02;1.90;;;0.90;;
25127;SDS011;13107;51.304;6.866;2024-03-02T18:13:04;3.75;;;1.00;;
25127;SDS011;13107;51.304;6.866;2024-03-02T18:17:06;3.17;;;0.75;;
25127;SDS011;13107;51.304;6.866;2024-03-02T18:21:08;1.20;;;0.50;;
25127;SDS011;13107;51.304;6.866;2024-03-02T18:25:10;0.95;;;0.65;;
25127;SDS011;13107;51.304;6.866;2024-03-02T18:29:12;1.27;;;0.68;;
25127;SDS011;13107;51.304;6.866;2024-03-02T18:33:15;1.80;;;0.60;;
25127;SDS011;13107;51.304;6.866;2024-03-02T18:37:17;2.92;;;0.68;;
25127;SDS011;13107;51.304;6.866;2024-03-02T18:41:23;1.65;;;0.70;;
25127;SDS011;13107;51.304;6.866;2024-03-02T18:45:26;1.05;;;0.60;;
25127;SDS011;13107;51.304;6.866;2024-03-02T18:49:27;0.93;;;0.60;;
25127;SDS011;13107;51.304;6.866;2024-03-02T18:53:29;2.78;;;0.70;;
25127;SDS011;13107;51.304;6.866;2024-03-02T18:57:31;1.48;;;0.50;;
25127;SDS011;13107;51.304;6.866;2024-03-02T19:01:33;2.33;;;0.52;;
25127;SDS011;13107;51.304;6.866;2024-03-02T19:05:35;1.83;;;0.60;;
25127;SDS011;13107;51.304;6.866;2024-03-02T19:09:37;1.08;;;0.70;;
25127;SDS011;13107;51.304;6.866;2024-03-02T19:13:39;1.73;;;0.77;;
25127;SDS011;13107;51.304;6.866;2024-03-02T19:17:41;1.90;;;0.90;;
25127;SDS011;13107;51.304;6.866;2024-03-02T19:21:44;0.93;;;0.62;;
25127;SDS011;13107;51.304;6.866;2024-03-02T19:25:53;3.95;;;0.90;;
25127;SDS011;13107;51.304;6.866;2024-03-02T19:29:55;2.12;;;1.00;;
25127;SDS011;13107;51.304;6.866;2024-03-02T19:33:57;3.95;;;0.90;;
25127;SDS011;13107;51.304;6.866;2024-03-02T19:37:59;1.80;;;0.90;;
25127;SDS011;13107;51.304;6.866;2024-03-02T19:42:01;2.05;;;1.12;;
25127;SDS011;13107;51.304;6.866;2024-03-02T19:46:04;3.28;;;1.10;;
25127;SDS011;13107;51.304;6.866;2024-03-02T19:50:07;3.53;;;1.35;;
25127;SDS011;13107;51.304;6.866;2024-03-02T19:54:13;3.12;;;1.30;;
25127;SDS011;13107;51.304;6.866;2024-03-02T19:58:15;2.20;;;1.20;;
25127;SDS011;13107;51.304;6.866;2024-03-02T20:02:18;2.97;;;1.55;;
25127;SDS011;13107;51.304;6.866;2024-03-02T20:06:21;3.20;;;1.50;;
25127;SDS011;13107;51.304;6.866;2024-03-02T20:10:23;3.15;;;1.70;;
25127;SDS011;13107;51.304;6.866;2024-03-02T20:14:25;5.18;;;1.55;;
25127;SDS011;13107;51.304;6.866;2024-03-02T20:18:27;3.53;;;1.80;;
25127;SDS011;13107;51.304;6.866;2024-03-02T20:22:29;2.78;;;1.50;;
25127;SDS011;13107;51.304;6.866;2024-03-02T20:26:31;3.45;;;1.70;;
25127;SDS011;13107;51.304;6.866;2024-03-02T20:30:33;3.08;;;1.55;;
25127;SDS011;13107;51.304;6.866;2024-03-02T20:34:35;2.83;;;1.67;;
25127;SDS011;13107;51.304;6.866;2024-03-02T20:38:38;2.67;;;1.50;;
25127;SDS011;13107;51.304;6.866;2024-03-02T20:42:39;3.05;;;1.70;;
25127;SDS011;13107;51.304;6.866;2024-03-02T20:46:41;3.67;;;2.20;;
25127;SDS011;13107;51.304;6.866;2024-03-02T20:50:43;3.47;;;2.00;;
25127;SDS011;13107;51.304;6.866;2024-03-02T20:54:49;3.55;;;1.85;;
25127;SDS011;13107;51.304;6.866;2024-03-02T20:58:51;3.75;;;2.00;;
25127;SDS011;13107;51.304;6.866;2024-03-02T21:02:53;4.18;;;1.73;;
25127;SDS011;13107;51.304;6.866;2024-03-02T21:06:55;4.10;;;1.65;;
25127;SDS011;13107;51.304;6.866;2024-03-02T21:10:56;3.20;;;2.00;;
25127;SDS011;13107;51.304;6.866;2024-03-02T21:14:58;2.45;;;1.60;;
25127;SDS011;13107;51.304;6.866;2024-03-02T21:19:00;2.67;;;1.95;;
25127;SDS011;13107;51.304;6.866;2024-03-02T21:23:02;3.00;;;1.85;;
25127;SDS011;13107;51.304;6.866;2024-03-02T21:27:04;3.83;;;2.22;;
25127;SDS011;13107;51.304;6.866;2024-03-02T21:31:08;5.12;;;2.30;;
25127;SDS011;13107;51.304;6.866;2024-03-02T21:35:18;3.78;;;2.22;;
25127;SDS011;13107;51.304;6.866;2024-03-02T21:39:21;4.72;;;2.37;;
25127;SDS011;13107;51.304;6.866;2024-03-02T21:43:39;3.45;;;2.10;;
25127;SDS011;13107;51.304;6.866;2024-03-02T21:47:43;4.25;;;2.00;;
25127;SDS011;13107;51.304;6.866;2024-03-02T21:51:45;4.10;;;2.58;;
25127;SDS011;13107;51.304;6.866;2024-03-02T21:55:47;5.05;;;2.58;;
25127;SDS011;13107;51.304;6.866;2024-03-02T21:59:49;4.60;;;2.80;;
25127;SDS011;13107;51.304;6.866;2024-03-02T22:03:50;3.67;;;2.65;;
25127;SDS011;13107;51.304;6.866;2024-03-02T22:07:52;4.68;;;2.80;;
25127;SDS011;13107;51.304;6.866;2024-03-02T22:11:55;4.20;;;2.67;;
25127;SDS011;13107;51.304;6.866;2024-03-02T22:15:57;4.43;;;2.67;;
25127;SDS011;13107;51.304;6.866;2024-03-02T22:19:59;5.60;;;3.05;;
25127;SDS011;13107;51.304;6.866;2024-03-02T22:24:01;4.35;;;2.78;;
25127;SDS011;13107;51.304;6.866;2024-03-02T22:28:03;5.35;;;3.37;;
25127;SDS011;13107;51.304;6.866;2024-03-02T22:32:05;6.82;;;3.33;;
25127;SDS011;13107;51.304;6.866;2024-03-02T22:36:07;4.87;;;3.22;;
25127;SDS011;13107;51.304;6.866;2024-03-02T22:40:10;5.12;;;3.15;;
25127;SDS011;13107;51.304;6.866;2024-03-02T22:44:12;5.87;;;3.60;;
25127;SDS011;13107;51.304;6.866;2024-03-02T22:48:14;5.82;;;3.58;;
25127;SDS011;13107;51.304;6.866;2024-03-02T22:52:16;5.93;;;3.35;;
25127;SDS011;13107;51.304;6.866;2024-03-02T22:56:18;5.40;;;3.22;;
25127;SDS011;13107;51.304;6.866;2024-03-02T23:00:20;7.43;;;3.50;;
25127;SDS011;13107;51.304;6.866;2024-03-02T23:04:37;5.90;;;3.58;;
25127;SDS011;13107;51.304;6.866;2024-03-02T23:08:39;4.68;;;3.65;;
25127;SDS011;13107;51.304;6.866;2024-03-02T23:12:41;6.87;;;3.45;;
25127;SDS011;13107;51.304;6.866;2024-03-02T23:16:44;4.80;;;3.55;;
25127;SDS011;13107;51.304;6.866;2024-03-02T23:20:46;5.60;;;3.85;;
25127;SDS011;13107;51.304;6.866;2024-03-02T23:24:48;5.80;;;3.92;;
25127;SDS011;13107;51.304;6.866;2024-03-02T23:28:50;7.78;;;3.83;;
25127;SDS011;13107;51.304;6.866;2024-03-02T23:32:52;7.22;;;3.72;;
25127;SDS011;13107;51.304;6.866;2024-03-02T23:36:54;5.78;;;4.03;;
25127;SDS011;13107;51.304;6.866;2024-03-02T23:40:57;4.90;;;3.37;;
25127;SDS011;13107;51.304;6.866;2024-03-02T23:45:10;6.03;;;3.75;;
25127;SDS011;13107;51.304;6.866;2024-03-02T23:49:12;8.05;;;4.15;;
25127;SDS011;13107;51.304;6.866;2024-03-02T23:53:14;6.95;;;4.05;;
25127;SDS011;13107;51.304;6.866;2024-03-02T23:57:16;5.65;;;3.62;;
